Time;durP1;ratioP1;P1;durP2;ratioP2;P2;SDS_P1;SDS_P2;PMS_P1;PMS_P2;Temp;Humidity;BMP_temperature;BMP_pressure;BME280_temperature;BME280_humidity;BME280_pressure;Samples;Min_cycle;Max_cycle;Signal;HPM_P1;HPM_P2
2023/01/03 05:04:43;;;;;;;1.58;1.48;;;6.90;99.90;;;;;;5572256;23;20245;-69
2023/01/03 05:07:09;;;;;;;1.00;0.90;;;6.90;99.90;;;;;;5005792;28;20174;-70
2023/01/03 05:09:34;;;;;;;1.63;1.53;;;6.90;99.90;;;;;;5003985;28;20199;-68
2023/01/03 05:12:00;;;;;;;1.47;1.30;;;6.90;99.90;;;;;;4998664;28;20209;-68
2023/01/03 05:14:25;;;;;;;1.37;1.27;;;6.90;99.90;;;;;;4997056;28;20268;-69
2023/01/03 05:16:51;;;;;;;1.70;1.60;;;6.90;99.90;;;;;;4997590;28;20197;-68
2023/01/03 05:19:17;;;;;;;1.33;1.33;;;7.00;99.90;;;;;;4988557;28;20178;-70
2023/01/03 05:27:11;;;;;;;1.40;1.38;;;7.00;99.90;;;;;;4989985;28;20178;-69
2023/01/03 05:29:37;;;;;;;2.07;1.60;;;7.00;99.90;;;;;;5020472;28;20223;-70
2023/01/03 05:32:03;;;;;;;1.50;1.40;;;7.10;99.90;;;;;;5020315;28;20167;-72
2023/01/03 05:34:28;;;;;;;1.77;1.67;;;7.00;99.90;;;;;;4985845;28;20203;-71
2023/01/03 05:36:54;;;;;;;2.00;1.90;;;7.00;99.90;;;;;;4986613;28;20179;-71
2023/01/03 05:39:19;;;;;;;2.70;1.57;;;7.00;99.90;;;;;;4993514;28;20562;-68
2023/01/03 05:42:00;;;;;;;1.63;1.53;;;7.00;99.90;;;;;;5002634;28;20242;-70
2023/01/03 05:44:33;;;;;;;1.88;1.80;;;6.90;99.90;;;;;;4995724;28;20239;-71
2023/01/03 05:47:01;;;;;;;1.70;1.60;;;6.80;99.90;;;;;;4997352;28;20175;-69
2023/01/03 05:49:27;;;;;;;1.30;1.20;;;6.80;99.90;;;;;;4989329;28;20222;-72
2023/01/03 05:51:52;;;;;;;1.50;1.40;;;6.70;99.90;;;;;;4984609;28;20206;-73
2023/01/03 05:54:19;;;;;;;0.77;0.77;;;6.70;99.90;;;;;;4987865;28;20188;-68
2023/01/03 05:56:45;;;;;;;1.10;1.10;;;6.70;99.90;;;;;;4990736;28;20194;-71
2023/01/03 05:59:11;;;;;;;1.20;1.20;;;6.60;99.90;;;;;;4997312;28;20175;-68
2023/01/03 06:01:37;;;;;;;1.60;1.50;;;6.60;99.90;;;;;;5008268;28;20289;-69
2023/01/03 06:04:03;;;;;;;1.33;1.10;;;6.60;99.90;;;;;;4982775;28;20202;-69
2023/01/03 06:06:29;;;;;;;1.60;1.20;;;6.50;99.90;;;;;;4976806;28;20422;-72
2023/01/03 06:08:55;;;;;;;2.47;1.65;;;6.50;99.90;;;;;;4976501;28;20461;-68
2023/01/03 06:11:21;;;;;;;1.53;1.43;;;6.50;99.90;;;;;;4978166;28;20689;-69
2023/01/03 06:13:46;;;;;;;2.03;1.70;;;6.40;99.90;;;;;;5008134;28;20555;-66
2023/01/03 06:19:00;;;;;;;1.67;1.50;;;6.40;99.90;;;;;;4978581;28;20197;-68
2023/01/03 06:21:26;;;;;;;1.75;1.30;;;6.30;99.90;;;;;;4977397;28;20178;-67
2023/01/03 06:23:52;;;;;;;3.75;1.75;;;6.30;99.90;;;;;;4976218;28;20200;-68
2023/01/03 06:26:21;;;;;;;1.23;1.23;;;6.30;99.90;;;;;;4976988;28;20188;-67
2023/01/03 06:28:47;;;;;;;2.08;1.88;;;6.30;99.90;;;;;;4982338;28;20191;-66
2023/01/03 06:31:13;;;;;;;1.10;1.10;;;6.30;99.90;;;;;;4981214;28;20180;-66
2023/01/03 06:33:39;;;;;;;1.17;1.17;;;6.30;99.90;;;;;;4975235;28;20486;-68
2023/01/03 06:36:07;;;;;;;3.55;1.45;;;6.20;99.90;;;;;;4976920;28;20482;-69
2023/01/03 06:38:34;;;;;;;1.52;1.38;;;6.20;99.90;;;;;;4985519;28;20175;-65
2023/01/03 06:41:00;;;;;;;1.52;1.42;;;6.20;99.90;;;;;;4994875;28;20198;-67
2023/01/03 06:43:25;;;;;;;2.33;2.17;;;6.20;99.90;;;;;;4975244;28;20179;-65
2023/01/03 06:54:13;;;;;;;1.40;1.30;;;6.10;99.90;;;;;;4980028;28;20217;-65
2023/01/03 06:56:39;;;;;;;1.60;1.50;;;6.00;99.90;;;;;;4977368;28;20214;-67
2023/01/03 06:59:04;;;;;;;1.47;1.30;;;6.00;99.90;;;;;;4975256;28;20226;-69
2023/01/03 07:01:30;;;;;;;1.30;1.20;;;5.90;99.90;;;;;;4975594;28;20418;-66
2023/01/03 07:03:55;;;;;;;1.23;1.17;;;5.90;99.90;;;;;;4977467;28;20192;-68
2023/01/03 07:06:21;;;;;;;1.50;1.47;;;5.90;99.90;;;;;;4994132;28;20673;-68
2023/01/03 07:08:46;;;;;;;1.77;1.63;;;5.80;99.90;;;;;;4995092;28;20200;-66
2023/01/03 07:11:12;;;;;;;1.97;1.87;;;5.70;99.90;;;;;;4990245;28;20174;-68
2023/01/03 07:16:22;;;;;;;2.05;1.85;;;5.70;99.90;;;;;;4974738;28;20189;-69
2023/01/03 07:18:49;;;;;;;2.13;1.97;;;5.70;99.90;;;;;;4975377;28;20178;-69
2023/01/03 07:21:14;;;;;;;1.65;1.55;;;5.70;99.90;;;;;;4975479;28;20251;-74
2023/01/03 07:23:40;;;;;;;2.07;1.47;;;5.70;99.90;;;;;;4975047;28;20329;-69
2023/01/03 07:26:06;;;;;;;3.27;1.70;;;5.70;99.90;;;;;;4982967;28;20419;-67
2023/01/03 07:28:32;;;;;;;1.67;1.57;;;5.70;99.90;;;;;;4992969;28;20453;-68
2023/01/03 07:31:02;;;;;;;2.03;1.20;;;5.70;99.90;;;;;;4979643;28;20205;-66
2023/01/03 07:33:28;;;;;;;1.80;1.58;;;5.70;99.90;;;;;;4974138;28;20581;-67
2023/01/03 07:36:02;;;;;;;1.50;1.40;;;5.70;99.90;;;;;;4976036;28;20204;-66
2023/01/03 07:38:28;;;;;;;1.63;1.52;;;5.70;99.90;;;;;;4974838;28;20197;-63
2023/01/03 07:41:01;;;;;;;4.10;1.53;;;5.70;99.90;;;;;;4974772;28;20513;-69
2023/01/03 07:43:35;;;;;;;1.88;1.50;;;5.70;99.90;;;;;;4974932;28;20186;-68
2023/01/03 07:46:07;;;;;;;1.90;1.80;;;5.70;99.90;;;;;;4975159;28;20185;-68
2023/01/03 07:48:33;;;;;;;1.80;1.38;;;5.70;99.90;;;;;;4975106;28;20176;-66
2023/01/03 07:50:59;;;;;;;2.00;1.90;;;5.70;99.90;;;;;;4975149;28;20174;-68
2023/01/03 07:53:25;;;;;;;2.97;2.20;;;5.80;99.90;;;;;;4987006;28;20177;-68
2023/01/03 07:55:50;;;;;;;2.00;1.80;;;5.80;99.90;;;;;;4993320;28;20539;-68
2023/01/03 07:58:16;;;;;;;1.80;1.70;;;5.90;99.90;;;;;;4974148;28;20173;-71
2023/01/03 08:00:42;;;;;;;1.80;1.70;;;6.00;99.90;;;;;;4973239;28;20182;-68
2023/01/03 08:03:08;;;;;;;1.70;1.60;;;6.10;99.90;;;;;;4974040;28;20176;-73
2023/01/03 08:05:34;;;;;;;2.10;2.00;;;6.20;99.90;;;;;;4974679;28;20209;-66
2023/01/03 08:08:01;;;;;;;4.43;2.10;;;6.30;99.90;;;;;;4973690;28;20176;-66
2023/01/03 08:13:16;;;;;;;1.80;1.70;;;6.70;99.90;;;;;;4971643;28;20237;-65
2023/01/03 08:15:50;;;;;;;2.10;1.90;;;6.90;99.90;;;;;;4988275;28;20207;-65
2023/01/03 08:18:19;;;;;;;3.92;1.90;;;7.10;99.90;;;;;;4994055;28;20179;-64
2023/01/03 08:20:46;;;;;;;2.10;1.90;;;7.20;99.90;;;;;;4979228;28;20184;-65
2023/01/03 08:23:12;;;;;;;1.65;1.55;;;7.30;99.90;;;;;;4974147;28;20549;-64
2023/01/03 08:25:38;;;;;;;1.80;1.70;;;7.50;99.90;;;;;;4987341;28;20234;-66
2023/01/03 08:28:05;;;;;;;1.90;1.80;;;7.70;99.90;;;;;;4994047;28;20537;-69
2023/01/03 08:30:31;;;;;;;1.70;1.58;;;7.90;99.90;;;;;;4991818;28;20203;-68
2023/01/03 08:33:00;;;;;;;1.30;1.20;;;8.00;99.90;;;;;;4974110;28;20254;-69
2023/01/03 08:35:30;;;;;;;1.75;1.65;;;8.10;99.90;;;;;;4974426;28;20191;-67
2023/01/03 08:37:59;;;;;;;1.52;1.42;;;8.20;99.90;;;;;;4973521;28;20195;-69
2023/01/03 08:40:25;;;;;;;2.30;2.20;;;8.20;99.90;;;;;;4973301;28;20188;-66
2023/01/03 08:42:51;;;;;;;2.00;1.90;;;8.20;99.90;;;;;;4974514;28;20179;-70
2023/01/03 08:45:17;;;;;;;2.70;1.90;;;8.20;99.90;;;;;;4973732;28;20210;-68
2023/01/03 08:47:44;;;;;;;1.88;1.80;;;8.10;99.90;;;;;;4972734;28;20649;-67
2023/01/03 08:50:10;;;;;;;3.25;1.80;;;8.10;99.90;;;;;;4974130;28;20218;-67
2023/01/03 08:52:36;;;;;;;1.60;1.52;;;8.10;99.90;;;;;;4985766;28;20168;-69
2023/01/03 08:55:03;;;;;;;1.60;1.50;;;8.10;99.90;;;;;;4973553;28;20196;-68
2023/01/03 08:57:28;;;;;;;1.92;1.83;;;8.10;99.90;;;;;;4973436;28;20172;-70
2023/01/03 08:59:54;;;;;;;1.97;1.87;;;8.20;99.90;;;;;;4973455;28;20255;-68
2023/01/03 09:02:19;;;;;;;1.70;1.60;;;8.20;99.90;;;;;;4974195;28;20171;-65
2023/01/03 09:04:45;;;;;;;2.57;2.13;;;8.20;99.90;;;;;;4981717;28;20276;-69
2023/01/03 09:07:11;;;;;;;1.47;1.37;;;8.20;99.90;;;;;;4993612;28;20214;-67
2023/01/03 09:09:36;;;;;;;1.87;1.77;;;8.20;99.90;;;;;;4986193;28;20202;-71
2023/01/03 09:12:02;;;;;;;1.17;1.07;;;8.20;99.90;;;;;;4974637;28;20164;-68
2023/01/03 09:14:29;;;;;;;2.43;1.53;;;8.30;99.90;;;;;;4972401;28;20285;-68
2023/01/03 09:16:55;;;;;;;2.63;2.42;;;8.40;99.90;;;;;;4980645;28;20171;-65
2023/01/03 09:19:21;;;;;;;2.43;2.23;;;8.40;99.90;;;;;;4977895;28;20284;-71
2023/01/03 09:21:46;;;;;;;2.77;2.20;;;8.40;99.90;;;;;;4974165;28;20211;-67
2023/01/03 09:24:12;;;;;;;4.83;1.97;;;8.50;99.90;;;;;;4973371;28;20558;-68
2023/01/03 09:26:37;;;;;;;1.43;1.37;;;8.60;99.90;;;;;;4973172;28;20275;-70
2023/01/03 09:29:03;;;;;;;1.90;1.80;;;8.70;99.90;;;;;;4972323;28;20195;-69
2023/01/03 09:31:33;;;;;;;2.47;2.27;;;8.80;99.90;;;;;;4975926;28;20258;-68
2023/01/03 09:33:59;;;;;;;2.40;2.30;;;8.80;99.90;;;;;;4975914;28;20239;-66
2023/01/03 09:36:25;;;;;;;2.42;2.22;;;8.90;99.90;;;;;;4977453;28;20168;-67
2023/01/03 09:38:50;;;;;;;2.70;2.10;;;8.90;99.90;;;;;;4987469;28;20193;-66
2023/01/03 09:41:26;;;;;;;2.30;2.13;;;8.90;99.90;;;;;;4977646;28;20180;-67
2023/01/03 09:44:01;;;;;;;2.00;1.63;;;9.00;99.90;;;;;;4976065;28;20208;-67
2023/01/03 09:46:29;;;;;;;3.60;2.15;;;9.10;99.90;;;;;;4976711;28;20555;-66
2023/01/03 09:48:55;;;;;;;2.15;1.80;;;9.20;99.90;;;;;;4980428;28;20196;-67
2023/01/03 10:03:44;;;;;;;1.70;1.58;;;9.90;99.90;;;;;;4976048;28;20433;-67
2023/01/03 10:06:23;;;;;;;2.57;2.37;;;10.20;99.90;;;;;;4978996;28;20197;-69
2023/01/03 10:09:07;;;;;;;3.37;2.13;;;10.40;99.90;;;;;;4983318;28;20472;-66
2023/01/03 10:11:32;;;;;;;4.37;1.83;;;10.80;99.90;;;;;;4976268;28;20908;-67
2023/01/03 10:14:13;;;;;;;3.43;2.07;;;11.00;99.90;;;;;;4975556;28;20516;-66
2023/01/03 10:16:49;;;;;;;3.23;2.23;;;11.20;99.90;;;;;;4957750;28;20187;-67
2023/01/03 10:19:38;;;;;;;1.50;1.40;;;11.40;99.90;;;;;;4997558;28;20470;-67
2023/01/03 10:22:15;;;;;;;1.93;1.83;;;11.60;99.90;;;;;;4976612;28;20434;-67
2023/01/03 10:25:03;;;;;;;1.87;1.77;;;11.70;99.90;;;;;;4986307;28;20460;-67
2023/01/03 10:27:41;;;;;;;3.03;2.30;;;11.80;99.90;;;;;;4995367;28;20433;-67
2023/01/03 10:30:14;;;;;;;2.37;2.27;;;11.90;99.90;;;;;;4977739;28;20469;-65
2023/01/03 10:32:56;;;;;;;3.50;2.30;;;11.90;99.90;;;;;;4978150;28;20933;-67
2023/01/03 10:35:28;;;;;;;2.40;2.20;;;11.90;99.90;;;;;;4978957;28;20529;-66
2023/01/03 10:37:55;;;;;;;3.67;2.33;;;11.80;99.90;;;;;;4974208;28;20425;-70
2023/01/03 10:40:41;;;;;;;2.80;2.60;;;11.60;99.90;;;;;;4976422;28;20434;-69
2023/01/03 10:43:17;;;;;;;6.20;3.37;;;11.50;99.90;;;;;;4979204;28;20749;-72
2023/01/03 10:45:53;;;;;;;3.23;2.93;;;11.50;99.90;;;;;;4995840;28;20512;-66
2023/01/03 10:48:18;;;;;;;3.13;2.53;;;11.50;99.90;;;;;;4983674;28;20424;-67
2023/01/03 10:50:45;;;;;;;8.40;2.90;;;11.60;99.90;;;;;;4976232;28;20457;-67
2023/01/03 10:53:14;;;;;;;3.53;3.23;;;11.70;99.90;;;;;;4978955;28;20175;-70
2023/01/03 10:55:49;;;;;;;4.40;3.37;;;12.00;99.90;;;;;;4987112;28;20522;-67
2023/01/03 10:58:26;;;;;;;3.70;2.27;;;12.40;99.90;;;;;;4973049;28;20506;-71
2023/01/03 11:01:07;;;;;;;2.90;2.70;;;12.70;99.90;;;;;;4974694;28;20413;-75
2023/01/03 11:03:33;;;;;;;3.77;3.00;;;13.00;99.90;;;;;;4980517;28;20435;-67
2023/01/03 11:05:59;;;;;;;2.57;2.37;;;13.30;99.90;;;;;;4991696;28;20515;-70
2023/01/03 11:08:44;;;;;;;3.43;2.67;;;13.50;99.90;;;;;;4987476;28;20182;-68
2023/01/03 11:11:35;;;;;;;4.30;2.87;;;13.60;99.90;;;;;;4994947;28;20193;-67
2023/01/03 11:14:23;;;;;;;2.47;2.27;;;13.70;99.90;;;;;;4968554;28;20439;-68
2023/01/03 11:17:01;;;;;;;3.80;2.30;;;13.60;99.90;;;;;;4975789;28;20491;-68
2023/01/03 11:19:29;;;;;;;2.63;2.43;;;13.40;99.90;;;;;;4975143;28;20498;-69
2023/01/03 11:22:15;;;;;;;3.30;2.53;;;13.20;99.90;;;;;;4974990;28;20412;-67
2023/01/03 11:25:00;;;;;;;2.40;2.20;;;13.00;99.90;;;;;;4971803;28;20450;-67
2023/01/03 11:27:52;;;;;;;1.90;1.80;;;12.70;99.90;;;;;;4972353;28;20423;-69
2023/01/03 11:30:32;;;;;;;3.20;2.07;;;12.20;99.90;;;;;;4971558;28;20469;-67
2023/01/03 11:33:10;;;;;;;1.93;1.83;;;11.80;99.90;;;;;;4964564;28;20430;-69
2023/01/03 11:35:36;;;;;;;1.80;1.70;;;11.60;99.90;;;;;;4973860;28;20441;-74
2023/01/03 11:38:24;;;;;;;2.10;1.67;;;11.40;99.90;;;;;;4972134;28;20414;-75
2023/01/03 11:41:10;;;;;;;2.37;1.90;;;11.20;99.90;;;;;;4975329;28;20187;-75
2023/01/03 11:44:01;;;;;;;2.90;2.10;;;11.00;99.90;;;;;;4977642;28;20497;-71
2023/01/03 11:47:04;;;;;;;2.43;1.70;;;10.90;99.90;;;;;;4930398;28;20432;-73
2023/01/03 11:49:59;;;;;;;2.35;1.80;;;10.80;99.90;;;;;;4972597;28;20448;-73
2023/01/03 11:52:37;;;;;;;1.77;1.67;;;10.80;99.90;;;;;;4929764;29;20244;-73
2023/01/03 11:55:16;;;;;;;2.10;2.00;;;10.80;99.90;;;;;;4932493;29;20454;-68
2023/01/03 11:57:54;;;;;;;1.80;1.70;;;10.80;99.90;;;;;;4937100;29;20289;-69
2023/01/03 12:00:32;;;;;;;1.90;1.80;;;10.80;99.90;;;;;;4932433;29;20462;-67
2023/01/03 12:03:03;;;;;;;1.73;1.50;;;10.80;99.90;;;;;;4933227;29;20189;-75
2023/01/03 12:05:40;;;;;;;2.73;1.77;;;10.90;99.90;;;;;;4930230;29;20459;-65
2023/01/03 12:08:12;;;;;;;1.30;1.30;;;10.80;99.90;;;;;;4922799;29;20486;-69
2023/01/03 12:11:05;;;;;;;1.63;1.52;;;10.80;99.90;;;;;;4927888;29;20207;-68
2023/01/03 12:13:39;;;;;;;1.50;1.40;;;10.70;99.90;;;;;;4923392;29;20313;-69
2023/01/03 12:16:11;;;;;;;1.58;1.48;;;10.70;99.90;;;;;;4916306;29;20185;-71
2023/01/03 12:18:39;;;;;;;1.08;1.08;;;10.60;99.90;;;;;;4934371;29;20174;-70
2023/01/03 12:21:20;;;;;;;2.85;2.00;;;10.60;99.90;;;;;;4949211;29;20341;-72
2023/01/03 12:24:11;;;;;;;1.38;1.38;;;10.70;99.90;;;;;;4930332;29;20283;-69
2023/01/03 12:26:41;;;;;;;1.67;1.63;;;10.80;99.90;;;;;;4929616;29;20331;-72
2023/01/03 12:29:14;;;;;;;1.50;1.42;;;10.80;99.90;;;;;;4950601;28;20202;-69
2023/01/03 12:31:52;;;;;;;1.77;1.58;;;10.90;99.90;;;;;;4966743;28;20646;-68
2023/01/03 12:34:45;;;;;;;2.72;1.90;;;10.80;99.90;;;;;;4976188;28;20204;-71
2023/01/03 12:37:16;;;;;;;1.60;1.50;;;10.80;99.90;;;;;;4975109;28;20358;-70
2023/01/03 12:40:20;;;;;;;1.27;1.23;;;10.80;99.90;;;;;;4974307;28;20185;-72
2023/01/03 12:42:58;;;;;;;2.03;1.92;;;10.80;99.90;;;;;;4934473;29;20418;-72
2023/01/03 12:45:24;;;;;;;1.73;1.50;;;10.90;99.90;;;;;;4951636;29;20218;-67
2023/01/03 12:48:04;;;;;;;1.47;1.37;;;10.90;99.90;;;;;;4921004;29;20524;-74
2023/01/03 12:50:43;;;;;;;1.30;1.30;;;11.00;99.90;;;;;;4930356;29;20280;-71
2023/01/03 12:53:19;;;;;;;1.60;1.50;;;11.00;99.90;;;;;;4921962;29;20208;-71
2023/01/03 12:55:54;;;;;;;2.05;1.85;;;11.10;99.90;;;;;;4929133;29;20265;-73
2023/01/03 12:58:47;;;;;;;1.87;1.50;;;11.10;99.90;;;;;;4933998;29;20257;-71
2023/01/03 13:01:36;;;;;;;1.87;1.77;;;11.10;99.90;;;;;;4936808;29;20429;-72
2023/01/03 13:04:41;;;;;;;1.30;1.30;;;11.10;99.90;;;;;;4913940;29;20563;-68
2023/01/03 13:07:17;;;;;;;1.48;1.42;;;11.20;99.90;;;;;;4931678;29;21088;-68
2023/01/03 13:09:49;;;;;;;0.93;0.90;;;11.20;99.90;;;;;;4923304;29;20214;-71
2023/01/03 13:12:19;;;;;;;1.00;0.90;;;11.30;99.90;;;;;;4927274;29;20503;-72
2023/01/03 13:15:02;;;;;;;1.13;1.10;;;11.30;99.90;;;;;;4958314;28;20537;-72
2023/01/03 13:17:30;;;;;;;2.20;2.00;;;11.30;99.90;;;;;;4961453;28;20490;-68
2023/01/03 13:20:13;;;;;;;1.20;1.20;;;11.30;99.90;;;;;;4971742;28;20481;-68
2023/01/03 13:22:49;;;;;;;1.73;1.63;;;11.20;99.90;;;;;;4966374;28;20718;-74
2023/01/03 13:25:38;;;;;;;1.00;1.00;;;11.10;99.90;;;;;;4958216;28;20847;-73
2023/01/03 13:28:05;;;;;;;1.50;1.40;;;11.00;99.90;;;;;;4988603;28;20491;-72
2023/01/03 13:30:34;;;;;;;1.10;1.10;;;10.90;99.90;;;;;;4970737;28;20292;-66
2023/01/03 13:33:25;;;;;;;5.28;2.58;;;10.80;99.90;;;;;;4967754;28;20185;-73
2023/01/03 13:35:58;;;;;;;1.23;1.13;;;10.70;99.90;;;;;;4960466;28;20197;-71
2023/01/03 13:38:34;;;;;;;1.70;1.60;;;10.60;99.90;;;;;;4996692;28;20193;-68
2023/01/03 13:41:14;;;;;;;1.80;1.70;;;10.60;99.90;;;;;;4972215;28;20165;-70
2023/01/03 13:43:39;;;;;;;1.00;1.00;;;10.50;99.90;;;;;;4958180;28;20295;-70
2023/01/03 13:46:20;;;;;;;1.17;1.00;;;10.50;99.90;;;;;;4972799;28;20648;-74
2023/01/03 13:49:01;;;;;;;1.13;1.05;;;10.50;99.90;;;;;;4975105;28;20171;-67
2023/01/03 13:51:38;;;;;;;1.20;1.10;;;10.40;99.90;;;;;;4973973;28;20187;-72
2023/01/03 13:54:24;;;;;;;1.70;1.60;;;10.40;99.90;;;;;;4967683;28;20199;-70
2023/01/03 13:56:51;;;;;;;0.95;0.95;;;10.40;99.90;;;;;;4978239;28;20230;-70
2023/01/03 13:59:30;;;;;;;1.52;1.42;;;10.30;99.90;;;;;;4982993;28;20544;-70
2023/01/03 14:02:05;;;;;;;1.30;1.20;;;10.30;99.90;;;;;;4965432;28;20240;-66
2023/01/03 14:04:59;;;;;;;1.25;1.20;;;10.20;99.90;;;;;;4966662;28;20203;-69
2023/01/03 14:07:52;;;;;;;2.50;2.20;;;10.20;99.90;;;;;;4972152;28;20678;-69
2023/01/03 14:10:42;;;;;;;2.00;1.90;;;10.10;99.90;;;;;;4969456;28;20247;-70
2023/01/03 14:13:31;;;;;;;1.60;1.33;;;10.10;99.90;;;;;;4966122;28;20227;-71
2023/01/03 14:16:24;;;;;;;3.08;1.80;;;10.00;99.90;;;;;;4962424;28;20188;-70
2023/01/03 14:19:29;;;;;;;2.55;1.30;;;10.00;99.90;;;;;;4972970;28;20267;-69
2023/01/03 14:21:58;;;;;;;1.02;1.02;;;10.00;99.90;;;;;;4968992;28;20657;-72
2023/01/03 14:24:29;;;;;;;1.38;1.27;;;9.90;99.90;;;;;;4970927;28;20284;-75
2023/01/03 14:27:06;;;;;;;2.30;1.65;;;9.90;99.90;;;;;;4975716;28;20286;-68
2023/01/03 14:29:37;;;;;;;4.43;2.22;;;9.90;99.90;;;;;;4974373;28;20219;-68
2023/01/03 14:32:02;;;;;;;1.58;1.48;;;10.00;99.90;;;;;;4969910;28;20173;-69
2023/01/03 14:34:33;;;;;;;1.60;1.50;;;10.00;99.90;;;;;;4987165;28;20207;-74
2023/01/03 14:37:04;;;;;;;2.50;1.50;;;10.00;99.90;;;;;;4982245;28;20178;-66
2023/01/03 14:39:31;;;;;;;1.73;1.38;;;10.00;99.90;;;;;;4979243;28;20709;-70
2023/01/03 14:41:58;;;;;;;1.25;1.10;;;10.00;99.90;;;;;;4975087;28;20739;-70
2023/01/03 14:44:24;;;;;;;1.08;1.08;;;10.00;99.90;;;;;;4976080;28;20208;-71
2023/01/03 14:46:53;;;;;;;0.83;0.83;;;10.00;99.90;;;;;;4975551;28;20634;-73
2023/01/03 14:49:27;;;;;;;1.35;1.00;;;9.90;99.90;;;;;;4975319;28;20212;-73
2023/01/03 14:52:01;;;;;;;1.85;1.75;;;9.90;99.90;;;;;;4975506;28;20177;-67
2023/01/03 14:54:28;;;;;;;1.00;0.90;;;9.90;99.90;;;;;;4977477;28;20199;-70
2023/01/03 14:56:54;;;;;;;1.48;1.17;;;9.90;99.90;;;;;;4974215;28;20172;-66
2023/01/03 14:59:22;;;;;;;1.20;1.20;;;10.00;99.90;;;;;;4975342;28;20199;-75
2023/01/03 15:01:48;;;;;;;0.80;0.80;;;10.00;99.90;;;;;;4974704;28;20648;-65
2023/01/03 15:04:16;;;;;;;1.20;1.10;;;10.00;99.90;;;;;;4975408;28;20230;-71
2023/01/03 15:07:01;;;;;;;1.38;1.30;;;10.00;99.90;;;;;;4991186;28;20430;-67
2023/01/03 15:09:32;;;;;;;2.17;1.20;;;10.00;99.90;;;;;;4995042;28;20200;-74
2023/01/03 15:12:03;;;;;;;1.80;1.45;;;10.00;99.90;;;;;;4978709;28;20177;-68
2023/01/03 15:14:32;;;;;;;1.20;1.05;;;9.90;99.90;;;;;;4977156;28;20655;-71
2023/01/03 15:17:10;;;;;;;0.90;0.90;;;9.90;99.90;;;;;;4975423;28;20701;-67
2023/01/03 15:19:38;;;;;;;1.70;1.15;;;9.80;99.90;;;;;;4990683;28;20574;-70
2023/01/03 15:22:18;;;;;;;2.95;1.10;;;9.80;99.90;;;;;;4975468;28;20192;-68
2023/01/03 15:24:46;;;;;;;1.10;1.10;;;9.70;99.90;;;;;;4974363;28;20218;-68
2023/01/03 15:27:30;;;;;;;1.05;0.90;;;9.60;99.90;;;;;;4974499;28;20527;-69
2023/01/03 15:30:22;;;;;;;2.08;1.85;;;9.60;99.90;;;;;;4974993;28;20223;-66
2023/01/03 15:33:03;;;;;;;2.85;2.65;;;9.40;99.90;;;;;;4981809;28;20185;-71
2023/01/03 15:35:31;;;;;;;2.47;2.28;;;9.40;99.90;;;;;;4974696;28;20603;-69
2023/01/03 15:37:59;;;;;;;1.63;1.52;;;9.40;99.90;;;;;;4976401;28;20262;-67
2023/01/03 15:40:25;;;;;;;2.28;2.17;;;9.30;99.90;;;;;;4974934;28;20176;-69
2023/01/03 15:45:40;;;;;;;3.17;2.85;;;9.30;99.90;;;;;;4993341;28;20225;-70
2023/01/03 15:48:08;;;;;;;3.45;3.15;;;9.30;99.90;;;;;;4990738;28;20244;-67
2023/01/03 15:50:48;;;;;;;3.80;3.38;;;9.30;99.90;;;;;;4990820;28;20203;-69
2023/01/03 15:53:35;;;;;;;4.10;3.70;;;9.30;99.90;;;;;;4986127;28;20165;-69
2023/01/03 15:56:23;;;;;;;4.30;3.88;;;9.30;99.90;;;;;;4978813;28;20240;-69
2023/01/03 15:58:51;;;;;;;4.00;3.35;;;9.20;99.90;;;;;;4986727;28;20173;-70
2023/01/03 16:01:18;;;;;;;3.20;2.40;;;9.20;99.90;;;;;;4981336;28;20534;-71
2023/01/03 16:03:45;;;;;;;2.17;2.08;;;9.10;99.90;;;;;;4972200;28;20739;-69
2023/01/03 16:06:10;;;;;;;2.80;2.60;;;9.00;99.90;;;;;;4978945;28;20195;-68
2023/01/03 16:08:38;;;;;;;2.40;2.17;;;9.00;99.90;;;;;;4980361;28;20184;-69
2023/01/03 16:11:21;;;;;;;3.33;2.35;;;8.90;99.90;;;;;;4985994;28;20213;-68
2023/01/03 16:13:52;;;;;;;2.70;2.50;;;8.90;99.90;;;;;;4982249;28;20187;-71
2023/01/03 16:16:23;;;;;;;3.97;3.20;;;8.80;99.90;;;;;;4980794;28;20187;-68
2023/01/03 16:18:49;;;;;;;3.30;3.10;;;8.80;99.90;;;;;;4979275;28;20195;-67
2023/01/03 16:21:15;;;;;;;3.70;3.38;;;8.70;99.90;;;;;;4974338;28;20176;-68
2023/01/03 16:23:40;;;;;;;3.45;3.15;;;8.60;99.90;;;;;;4978043;28;20188;-66
2023/01/03 16:26:06;;;;;;;3.00;2.10;;;8.60;99.90;;;;;;4974545;28;20175;-70
2023/01/03 16:28:32;;;;;;;4.40;3.00;;;8.50;99.90;;;;;;4974317;28;21791;-68
2023/01/03 16:31:03;;;;;;;3.63;2.72;;;8.40;99.90;;;;;;4973374;28;20466;-69
2023/01/03 16:33:32;;;;;;;2.97;2.72;;;8.30;99.90;;;;;;4978346;28;20175;-70
2023/01/03 16:35:59;;;;;;;4.20;3.17;;;8.30;99.90;;;;;;4972632;28;20176;-69
2023/01/03 16:38:28;;;;;;;3.70;3.40;;;8.30;99.90;;;;;;4974172;28;20530;-72
2023/01/03 16:40:55;;;;;;;3.45;3.15;;;8.20;99.90;;;;;;4984761;28;20179;-70
2023/01/03 16:43:22;;;;;;;3.53;3.22;;;8.20;99.90;;;;;;4980567;28;20599;-69
2023/01/03 16:45:48;;;;;;;4.78;3.15;;;8.20;99.90;;;;;;4991469;28;20212;-71
2023/01/03 16:48:19;;;;;;;3.03;2.83;;;8.20;99.90;;;;;;4977390;28;20215;-72
2023/01/03 16:50:45;;;;;;;4.80;3.70;;;8.20;99.90;;;;;;4976810;28;20557;-74
2023/01/03 16:53:27;;;;;;;2.70;2.50;;;8.20;99.90;;;;;;4977228;28;20184;-69
2023/01/03 16:55:55;;;;;;;3.75;2.97;;;8.10;99.90;;;;;;4977340;28;20259;-70
2023/01/03 16:58:22;;;;;;;2.60;2.40;;;8.10;99.90;;;;;;4984946;28;20199;-71
2023/01/03 17:00:48;;;;;;;3.10;2.90;;;8.10;99.90;;;;;;4976324;28;20238;-72
2023/01/03 17:03:14;;;;;;;3.30;3.03;;;8.10;99.90;;;;;;4977106;28;20176;-69
2023/01/03 17:05:40;;;;;;;3.70;2.90;;;8.10;99.90;;;;;;4977344;28;20459;-67
2023/01/03 17:08:14;;;;;;;4.47;3.07;;;8.00;99.90;;;;;;4988904;28;20233;-69
2023/01/03 17:10:42;;;;;;;3.30;3.00;;;8.00;99.90;;;;;;4977416;28;20759;-73
2023/01/03 17:13:31;;;;;;;2.88;2.67;;;8.00;99.90;;;;;;4979071;28;20172;-64
2023/01/03 17:15:58;;;;;;;2.83;2.63;;;7.90;99.90;;;;;;4977358;28;20164;-69
2023/01/03 17:18:35;;;;;;;2.50;2.28;;;7.90;99.90;;;;;;4978109;28;20175;-66
2023/01/03 17:21:17;;;;;;;4.20;2.60;;;7.80;99.90;;;;;;4975285;28;20271;-73
2023/01/03 17:23:44;;;;;;;3.85;3.50;;;7.70;99.90;;;;;;4978097;28;20207;-74
2023/01/03 17:26:13;;;;;;;3.22;2.90;;;7.60;99.90;;;;;;4978176;28;20187;-72
2023/01/03 17:28:39;;;;;;;3.30;3.00;;;7.50;99.90;;;;;;4979499;28;20179;-72
2023/01/03 17:31:05;;;;;;;4.20;3.53;;;7.40;99.90;;;;;;4979805;28;20207;-72
2023/01/03 17:33:31;;;;;;;3.97;3.10;;;7.30;99.90;;;;;;4976895;28;20501;-71
2023/01/03 17:35:56;;;;;;;3.30;3.00;;;7.20;99.90;;;;;;4976216;28;20611;-72
2023/01/03 17:38:22;;;;;;;7.17;4.57;;;7.20;99.90;;;;;;4977392;28;20182;-71
2023/01/03 17:40:48;;;;;;;3.28;3.08;;;7.10;99.90;;;;;;4978228;28;20570;-73
2023/01/03 17:43:23;;;;;;;3.30;2.77;;;7.00;99.90;;;;;;4980784;28;20187;-70
2023/01/03 17:51:22;;;;;;;4.40;3.33;;;6.80;99.90;;;;;;4974545;28;20596;-70
2023/01/03 17:53:50;;;;;;;3.50;3.20;;;6.80;99.90;;;;;;4978033;28;20202;-72
2023/01/03 17:56:17;;;;;;;3.35;3.05;;;6.80;99.90;;;;;;4975691;28;20787;-71
2023/01/03 17:58:45;;;;;;;3.45;3.17;;;6.70;99.90;;;;;;4976182;28;20214;-70
2023/01/03 18:01:12;;;;;;;4.20;3.65;;;6.70;99.90;;;;;;4973382;28;20215;-69
2023/01/03 18:03:38;;;;;;;4.30;3.88;;;6.60;99.90;;;;;;4976647;28;20187;-69
2023/01/03 18:06:13;;;;;;;3.90;3.60;;;6.60;99.90;;;;;;4975718;28;20215;-70
2023/01/03 18:08:39;;;;;;;4.88;4.10;;;6.50;99.90;;;;;;4974425;28;20427;-71
2023/01/03 18:11:06;;;;;;;4.55;4.15;;;6.50;99.90;;;;;;4975540;28;20314;-71
2023/01/03 18:13:36;;;;;;;4.13;3.67;;;6.40;99.90;;;;;;4976069;28;20177;-68
2023/01/03 18:16:02;;;;;;;7.50;4.40;;;6.40;99.90;;;;;;4979528;28;20220;-67
2023/01/03 18:18:30;;;;;;;6.05;4.68;;;6.30;99.90;;;;;;4980262;28;20169;-66
2023/01/03 18:20:56;;;;;;;7.85;4.13;;;6.20;99.90;;;;;;4975753;28;20608;-68
2023/01/03 18:23:34;;;;;;;6.40;4.85;;;6.20;99.90;;;;;;4975017;28;20181;-70
2023/01/03 18:26:03;;;;;;;5.97;4.55;;;6.20;99.90;;;;;;4972363;28;20181;-67
2023/01/03 18:28:29;;;;;;;6.32;4.10;;;6.10;99.90;;;;;;4990598;28;20179;-70
2023/01/03 18:30:55;;;;;;;5.70;3.80;;;6.00;99.90;;;;;;4987908;28;20229;-69
2023/01/03 18:33:21;;;;;;;5.68;4.63;;;6.00;99.90;;;;;;4978904;28;20195;-66
2023/01/03 18:35:47;;;;;;;5.20;4.63;;;5.90;99.90;;;;;;4975906;28;20177;-69
2023/01/03 18:38:28;;;;;;;4.80;4.30;;;5.90;99.90;;;;;;4974016;28;20419;-67
2023/01/03 18:40:55;;;;;;;4.97;3.53;;;5.80;99.90;;;;;;4975347;28;20204;-66
2023/01/03 18:43:22;;;;;;;4.55;3.35;;;5.80;99.90;;;;;;4974392;28;20180;-67
2023/01/03 18:45:48;;;;;;;3.40;3.17;;;5.80;99.90;;;;;;4972979;28;20180;-68
2023/01/03 18:48:19;;;;;;;4.20;3.90;;;5.70;99.90;;;;;;4975145;28;20227;-70
2023/01/03 18:50:48;;;;;;;5.80;3.60;;;5.70;99.90;;;;;;4974321;28;20544;-71
2023/01/03 18:53:23;;;;;;;3.70;3.42;;;5.70;99.90;;;;;;4977538;28;20164;-69
2023/01/03 18:55:48;;;;;;;6.13;4.45;;;5.60;99.90;;;;;;4974730;28;20582;-65
2023/01/03 18:58:34;;;;;;;6.23;4.00;;;5.60;99.90;;;;;;4975218;28;20188;-68
2023/01/03 19:01:00;;;;;;;6.50;4.40;;;5.50;99.90;;;;;;4973560;28;21008;-65
2023/01/03 19:03:28;;;;;;;5.47;4.20;;;5.60;99.90;;;;;;4973465;28;20297;-66